createdAt,value
2023-05-12T00:00:36.757Z,23.27
2023-05-12T00:01:36.786Z,23.26
2023-05-12T00:02:36.883Z,23.26
2023-05-12T00:03:37.086Z,23.26
2023-05-12T00:04:36.942Z,23.26
2023-05-12T00:05:36.952Z,23.26
2023-05-12T00:06:36.979Z,23.25
2023-05-12T00:07:37.004Z,23.25
2023-05-12T00:08:37.065Z,23.25
2023-05-12T00:09:37.117Z,23.25
2023-05-12T00:10:37.179Z,23.25
2023-05-12T00:11:37.260Z,23.25
2023-05-12T00:12:37.297Z,23.25
2023-05-12T00:13:37.351Z,23.25
2023-05-12T00:14:37.376Z,23.25
2023-05-12T00:15:37.430Z,23.25
2023-05-12T00:16:37.610Z,23.24
2023-05-12T00:17:37.653Z,23.24
2023-05-12T00:18:37.719Z,23.24
2023-05-12T00:19:37.622Z,23.24
2023-05-12T00:20:37.666Z,23.24
2023-05-12T00:21:37.701Z,23.23
2023-05-12T00:22:37.768Z,23.23
2023-05-12T00:23:37.819Z,23.24
2023-05-12T00:24:37.849Z,23.24
2023-05-12T00:25:37.926Z,23.24
2023-05-12T00:26:37.945Z,23.24
2023-05-12T00:27:38.009Z,23.24
2023-05-12T00:28:38.027Z,23.24
2023-05-12T00:29:38.109Z,23.23
2023-05-12T00:30:38.141Z,23.23
2023-05-12T00:31:38.223Z,23.24
2023-05-12T00:32:38.299Z,23.23
2023-05-12T00:33:38.330Z,23.23
2023-05-12T00:34:38.385Z,23.23
2023-05-12T00:35:38.464Z,23.23
2023-05-12T00:36:38.498Z,23.23
2023-05-12T00:37:38.591Z,23.22
2023-05-12T00:38:38.625Z,23.22
2023-05-12T00:39:38.694Z,23.23
2023-05-12T00:40:38.768Z,23.23
2023-05-12T00:41:38.793Z,23.22
2023-05-12T00:42:38.839Z,23.21
2023-05-12T00:43:38.890Z,23.21
2023-05-12T00:44:38.942Z,23.22
2023-05-12T00:45:39.039Z,23.21
2023-05-12T00:46:39.052Z,23.22
2023-05-12T00:47:39.142Z,23.21
2023-05-12T00:48:39.175Z,23.21
2023-05-12T00:49:39.243Z,23.21
2023-05-12T00:50:39.314Z,23.21
2023-05-12T00:51:39.368Z,23.21
2023-05-12T00:52:39.437Z,23.21
2023-05-12T00:53:49.304Z,23.21
2023-05-12T00:54:40.497Z,23.20
2023-05-12T00:55:39.525Z,23.20
2023-05-12T00:56:39.589Z,23.19
2023-05-12T00:57:39.498Z,23.19
2023-05-12T00:58:39.460Z,23.20
2023-05-12T00:59:39.495Z,23.19
2023-05-12T01:00:39.466Z,23.19
2023-05-12T01:01:39.544Z,23.20
2023-05-12T01:02:39.594Z,23.19
2023-05-12T01:03:39.546Z,23.19
2023-05-12T01:04:39.555Z,23.19
2023-05-12T01:05:39.657Z,23.19
2023-05-12T01:06:39.626Z,23.19
2023-05-12T01:07:39.680Z,23.19
2023-05-12T01:08:39.729Z,23.19
2023-05-12T01:09:39.783Z,23.19
2023-05-12T01:10:39.857Z,23.19
2023-05-12T01:11:39.866Z,23.18
2023-05-12T01:12:39.925Z,23.19
2023-05-12T01:13:39.975Z,23.18
2023-05-12T01:14:39.999Z,23.18
2023-05-12T01:15:40.078Z,23.18
2023-05-12T01:16:40.144Z,23.19
2023-05-12T01:17:40.324Z,23.19
2023-05-12T01:18:40.366Z,23.18
2023-05-12T01:19:40.313Z,23.19
2023-05-12T01:20:40.383Z,23.18
2023-05-12T01:21:40.412Z,23.18
2023-05-12T01:22:40.465Z,23.18
2023-05-12T01:23:40.506Z,23.18
2023-05-12T01:24:40.571Z,23.17
2023-05-12T01:25:40.646Z,23.18
2023-05-12T01:26:40.660Z,23.17
2023-05-12T01:27:40.679Z,23.17
2023-05-12T01:28:40.701Z,23.17
2023-05-12T01:29:40.737Z,23.17
2023-05-12T01:30:40.817Z,23.17
2023-05-12T01:31:41.083Z,23.17
2023-05-12T01:32:40.945Z,23.17
2023-05-12T01:33:40.956Z,23.16
2023-05-12T01:34:41.020Z,23.16
2023-05-12T01:35:41.086Z,23.15
2023-05-12T01:36:41.202Z,23.16
2023-05-12T01:37:41.163Z,23.15
2023-05-12T01:38:41.197Z,23.14
2023-05-12T01:39:41.213Z,23.15
2023-05-12T01:40:41.269Z,23.16
2023-05-12T01:41:41.340Z,23.16
2023-05-12T01:42:41.376Z,23.15
2023-05-12T01:43:41.406Z,23.15
2023-05-12T01:44:41.406Z,23.15
2023-05-12T01:45:41.469Z,23.15
2023-05-12T01:46:41.601Z,23.14
2023-05-12T01:47:41.569Z,23.14
2023-05-12T01:48:41.609Z,23.14
2023-05-12T01:49:41.640Z,23.15
2023-05-12T01:50:41.657Z,23.14
2023-05-12T01:51:41.733Z,23.15
2023-05-12T01:52:41.765Z,23.14
2023-05-12T01:53:41.824Z,23.14
2023-05-12T01:54:41.856Z,23.14
2023-05-12T01:55:41.905Z,23.14
2023-05-12T01:56:41.930Z,23.14
2023-05-12T01:57:41.974Z,23.14
2023-05-12T01:58:42.028Z,23.14
2023-05-12T01:59:42.028Z,23.14
2023-05-12T02:00:42.084Z,23.14
2023-05-12T02:01:42.178Z,23.12
2023-05-12T02:02:43.206Z,23.13
2023-05-12T02:03:42.190Z,23.13
2023-05-12T02:04:42.151Z,23.13
2023-05-12T02:05:42.151Z,23.14
2023-05-12T02:06:42.201Z,23.14
2023-05-12T02:07:42.224Z,23.14
2023-05-12T02:08:42.299Z,23.13
2023-05-12T02:09:42.319Z,23.14
2023-05-12T02:10:42.351Z,23.13
2023-05-12T02:11:42.432Z,23.13
2023-05-12T02:12:42.435Z,23.13
2023-05-12T02:13:42.460Z,23.14
2023-05-12T02:14:42.518Z,23.14
2023-05-12T02:15:42.600Z,23.13
2023-05-12T02:16:42.794Z,23.12
2023-05-12T02:17:42.687Z,23.12
2023-05-12T02:18:42.675Z,23.12
2023-05-12T02:19:42.620Z,23.12
2023-05-12T02:20:42.623Z,23.13
2023-05-12T02:21:42.677Z,23.12
2023-05-12T02:22:42.628Z,23.11
2023-05-12T02:23:42.641Z,23.12
2023-05-12T02:24:42.654Z,23.12
2023-05-12T02:25:42.638Z,23.11
2023-05-12T02:26:42.656Z,23.12
2023-05-12T02:27:42.660Z,23.12
2023-05-12T02:28:42.668Z,23.11
2023-05-12T02:29:42.662Z,23.11
2023-05-12T02:30:42.702Z,23.11
2023-05-12T02:31:42.738Z,23.10
2023-05-12T02:32:42.816Z,23.11
2023-05-12T02:33:42.785Z,23.11
2023-05-12T02:34:42.786Z,23.11
2023-05-12T02:35:42.816Z,23.11
2023-05-12T02:36:42.898Z,23.10
2023-05-12T02:37:42.868Z,23.10
2023-05-12T02:38:42.898Z,23.10
2023-05-12T02:39:42.910Z,23.10
2023-05-12T02:40:42.914Z,23.10
2023-05-12T02:41:42.927Z,23.11
2023-05-12T02:42:42.979Z,23.10
2023-05-12T02:43:42.995Z,23.11
2023-05-12T02:44:43.035Z,23.10
2023-05-12T02:45:43.060Z,23.10
2023-05-12T02:46:43.059Z,23.10
2023-05-12T02:47:43.108Z,23.09
2023-05-12T02:48:43.117Z,23.09
2023-05-12T02:49:43.185Z,23.09
2023-05-12T02:50:43.205Z,23.09
2023-05-12T02:51:43.156Z,23.08
2023-05-12T02:52:43.182Z,23.08
2023-05-12T02:53:43.193Z,23.09
2023-05-12T02:54:43.229Z,23.09
2023-05-12T02:55:43.259Z,23.09
2023-05-12T02:56:43.257Z,23.09
2023-05-12T02:57:43.282Z,23.08
2023-05-12T02:58:43.289Z,23.08
2023-05-12T02:59:43.292Z,23.08
2023-05-12T03:00:43.295Z,23.08
2023-05-12T03:01:43.388Z,23.08
2023-05-12T03:02:43.438Z,23.08
2023-05-12T03:03:43.494Z,23.07
2023-05-12T03:04:43.340Z,23.08
2023-05-12T03:05:43.332Z,23.07
2023-05-12T03:06:43.374Z,23.07
2023-05-12T03:07:43.351Z,23.07
2023-05-12T03:08:43.340Z,23.07
2023-05-12T03:09:43.351Z,23.07
2023-05-12T03:10:43.353Z,23.07
2023-05-12T03:11:43.346Z,23.07
2023-05-12T03:12:43.358Z,23.06
2023-05-12T03:13:43.322Z,23.06
2023-05-12T03:14:43.327Z,23.07
2023-05-12T03:15:43.317Z,23.07
2023-05-12T03:16:43.369Z,23.07
2023-05-12T03:17:43.389Z,23.07
2023-05-12T03:18:43.356Z,23.07
2023-05-12T03:19:43.335Z,23.06
2023-05-12T03:20:43.349Z,23.07
2023-05-12T03:21:43.366Z,23.06
2023-05-12T03:22:43.344Z,23.06
2023-05-12T03:23:43.336Z,23.06
2023-05-12T03:24:43.330Z,23.06
2023-05-12T03:25:43.297Z,23.06
2023-05-12T03:26:43.308Z,23.06
2023-05-12T03:27:43.308Z,23.06
2023-05-12T03:28:43.347Z,23.06
2023-05-12T03:29:43.297Z,23.06
2023-05-12T03:30:43.304Z,23.05
2023-05-12T03:31:43.388Z,23.05
2023-05-12T03:32:43.335Z,23.05
2023-05-12T03:33:43.324Z,23.05
2023-05-12T03:34:43.309Z,23.05
2023-05-12T03:35:43.307Z,23.04
2023-05-12T03:36:43.307Z,23.04
2023-05-12T03:37:43.314Z,23.05
2023-05-12T03:38:43.320Z,23.05
2023-05-12T03:39:43.321Z,23.04
2023-05-12T03:40:43.305Z,23.04
2023-05-12T03:41:43.310Z,23.04
2023-05-12T03:42:43.295Z,23.05
2023-05-12T03:43:43.289Z,23.03
2023-05-12T03:44:43.298Z,23.03
2023-05-12T03:45:43.327Z,23.03
2023-05-12T03:46:43.334Z,23.03
2023-05-12T03:47:43.350Z,23.03
2023-05-12T03:48:43.310Z,23.02
2023-05-12T03:49:43.292Z,23.02
2023-05-12T03:50:43.308Z,23.03
2023-05-12T03:51:43.273Z,23.02
2023-05-12T03:52:43.259Z,23.02
2023-05-12T03:53:43.264Z,23.02
2023-05-12T03:54:43.253Z,23.03
2023-05-12T03:55:43.287Z,23.02
2023-05-12T03:56:43.271Z,23.02
2023-05-12T03:57:43.259Z,23.02
2023-05-12T03:58:43.243Z,23.02
2023-05-12T03:59:43.243Z,23.02
2023-05-12T04:00:44.198Z,23.02
2023-05-12T04:01:43.288Z,23.01
2023-05-12T04:02:43.364Z,23.02
2023-05-12T04:03:43.339Z,23.01
2023-05-12T04:04:43.249Z,23.01
2023-05-12T04:05:43.242Z,23.02
2023-05-12T04:06:43.251Z,23.02
2023-05-12T04:07:43.244Z,23.02
2023-05-12T04:08:43.242Z,23.01
2023-05-12T04:09:43.242Z,23.02
2023-05-12T04:10:43.224Z,23.02
2023-05-12T04:11:43.228Z,23.02
2023-05-12T04:12:43.226Z,23.02
2023-05-12T04:13:43.212Z,23.02
2023-05-12T04:14:43.626Z,23.02
2023-05-12T04:15:43.234Z,23.02
2023-05-12T04:16:43.255Z,23.02
2023-05-12T04:17:43.294Z,23.02
2023-05-12T04:18:43.249Z,23.02
2023-05-12T04:19:43.213Z,23.03
2023-05-12T04:20:43.206Z,23.02
2023-05-12T04:21:43.217Z,23.02
2023-05-12T04:22:43.201Z,23.01
2023-05-12T04:23:43.205Z,23.01
2023-05-12T04:24:43.216Z,23.01
2023-05-12T04:25:43.223Z,23.01
2023-05-12T04:26:43.212Z,23.01
2023-05-12T04:27:43.206Z,23.01
2023-05-12T04:28:43.213Z,23.01
2023-05-12T04:29:43.203Z,23.01
2023-05-12T04:30:43.198Z,23.00
2023-05-12T04:31:43.238Z,23.00
2023-05-12T04:32:43.290Z,22.99
2023-05-12T04:33:43.195Z,23.00
2023-05-12T04:34:43.255Z,23.01
2023-05-12T04:35:43.204Z,23.00
2023-05-12T04:36:43.236Z,23.00
2023-05-12T04:37:43.204Z,23.00
2023-05-12T04:38:43.210Z,23.01
2023-05-12T04:39:43.220Z,23.00
2023-05-12T04:40:43.209Z,23.00
2023-05-12T04:41:43.198Z,23.01
2023-05-12T04:42:43.202Z,23.01
2023-05-12T04:44:43.206Z,23.01
2023-05-12T04:45:43.260Z,22.99
2023-05-12T04:46:43.190Z,22.99
2023-05-12T04:47:43.202Z,22.99
2023-05-12T04:48:43.186Z,22.99
2023-05-12T04:49:43.178Z,22.99
2023-05-12T04:50:43.162Z,22.99
2023-05-12T04:51:43.143Z,22.99
2023-05-12T04:52:43.168Z,23.00
2023-05-12T04:53:43.130Z,23.01
2023-05-12T04:54:43.117Z,23.00
2023-05-12T04:55:43.123Z,23.00
2023-05-12T04:56:43.128Z,23.00
2023-05-12T04:57:43.128Z,22.99
2023-05-12T04:58:43.123Z,23.00
2023-05-12T04:59:43.095Z,23.00
2023-05-12T05:00:43.091Z,23.00
2023-05-12T05:01:43.119Z,23.00
2023-05-12T05:02:43.201Z,23.00
2023-05-12T05:03:43.161Z,23.00
2023-05-12T05:04:43.065Z,23.00
2023-05-12T05:05:43.052Z,23.01
2023-05-12T05:06:43.041Z,23.01
2023-05-12T05:07:43.040Z,23.00
2023-05-12T05:08:43.016Z,23.00
2023-05-12T05:09:43.041Z,23.01
2023-05-12T05:10:43.003Z,23.02
2023-05-12T05:11:43.017Z,23.02
2023-05-12T05:12:43.005Z,23.02
2023-05-12T05:13:43.010Z,23.03
2023-05-12T05:14:43.006Z,23.03
2023-05-12T05:15:43.068Z,23.04
2023-05-12T05:16:42.982Z,23.02
2023-05-12T05:17:43.015Z,23.04
2023-05-12T05:18:42.979Z,23.04
2023-05-12T05:19:55.122Z,23.04
2023-05-12T05:20:45.616Z,23.04
2023-05-12T05:21:43.940Z,23.03
2023-05-12T05:22:42.923Z,23.04
2023-05-12T05:23:42.974Z,23.04
2023-05-12T05:24:42.935Z,23.04
2023-05-12T05:25:42.906Z,23.04
2023-05-12T05:26:42.895Z,23.04
2023-05-12T05:27:42.930Z,23.04
2023-05-12T05:28:42.940Z,23.04
2023-05-12T05:29:42.976Z,23.05
2023-05-12T05:30:42.870Z,23.04
2023-05-12T05:31:42.985Z,23.05
2023-05-12T05:32:43.136Z,23.05
2023-05-12T05:33:42.870Z,23.06
2023-05-12T05:34:42.912Z,23.07
2023-05-12T05:35:42.861Z,23.07
2023-05-12T05:36:42.861Z,23.09
2023-05-12T05:37:42.859Z,23.12
2023-05-12T05:38:42.819Z,23.13
2023-05-12T05:39:42.864Z,23.14
2023-05-12T05:40:52.955Z,23.15
2023-05-12T05:41:43.822Z,23.17
2023-05-12T05:42:42.799Z,23.20
2023-05-12T05:43:42.815Z,23.23
2023-05-12T05:44:42.809Z,23.26
2023-05-12T05:45:42.779Z,23.30
2023-05-12T05:46:42.877Z,23.35
2023-05-12T05:47:42.850Z,23.39
2023-05-12T05:48:42.758Z,23.41
2023-05-12T05:49:42.766Z,23.43
2023-05-12T05:50:42.738Z,23.43
2023-05-12T05:51:42.762Z,23.43
2023-05-12T05:52:42.737Z,23.42
2023-05-12T05:53:42.735Z,23.41
2023-05-12T05:54:42.816Z,23.40
2023-05-12T05:55:42.853Z,23.39
2023-05-12T05:56:42.913Z,23.37
2023-05-12T05:57:42.978Z,23.37
2023-05-12T05:58:43.032Z,23.36
2023-05-12T05:59:43.123Z,23.34
2023-05-12T06:00:43.130Z,23.32
2023-05-12T06:01:43.235Z,23.31
2023-05-12T06:02:43.379Z,23.31
2023-05-12T06:03:43.434Z,23.30
2023-05-12T06:04:43.320Z,23.30
2023-05-12T06:05:43.419Z,23.30
2023-05-12T06:06:43.387Z,23.29
2023-05-12T06:07:43.410Z,23.29
2023-05-12T06:08:43.441Z,23.29
2023-05-12T06:09:43.493Z,23.28
2023-05-12T06:10:43.505Z,23.28
2023-05-12T06:11:43.547Z,23.28
2023-05-12T06:12:43.630Z,23.29
2023-05-12T06:13:43.612Z,23.30
2023-05-12T06:14:43.698Z,23.30
2023-05-12T06:15:43.733Z,23.29
2023-05-12T06:16:43.841Z,23.28
2023-05-12T06:17:43.908Z,23.29
2023-05-12T06:18:43.947Z,23.28
2023-05-12T06:19:43.908Z,23.27
2023-05-12T06:20:43.952Z,23.26
2023-05-12T06:21:44.013Z,23.26
2023-05-12T06:22:44.041Z,23.25
2023-05-12T06:23:44.075Z,23.25
2023-05-12T06:24:44.116Z,23.24
2023-05-12T06:25:44.136Z,23.24
2023-05-12T06:26:44.211Z,23.24
2023-05-12T06:27:44.228Z,23.24
2023-05-12T06:28:44.250Z,23.24
2023-05-12T06:29:44.282Z,23.25
2023-05-12T06:30:44.354Z,23.25
2023-05-12T06:31:44.333Z,23.25
2023-05-12T06:32:44.398Z,23.25
2023-05-12T06:33:44.400Z,23.25
2023-05-12T06:34:44.397Z,23.25
2023-05-12T06:35:44.457Z,23.24
2023-05-12T06:36:44.425Z,23.24
2023-05-12T06:37:44.445Z,23.24
2023-05-12T06:38:44.465Z,23.24
2023-05-12T06:39:44.544Z,23.24
2023-05-12T06:40:44.554Z,23.25
2023-05-12T06:41:45.122Z,23.25
2023-05-12T06:42:44.661Z,23.25
2023-05-12T06:43:44.624Z,23.24
2023-05-12T06:44:44.629Z,23.24
2023-05-12T06:45:44.673Z,23.25
2023-05-12T06:46:44.680Z,23.26
2023-05-12T06:47:44.709Z,23.26
2023-05-12T06:48:44.669Z,23.26
2023-05-12T06:49:44.702Z,23.26
2023-05-12T06:50:44.732Z,23.26
2023-05-12T06:51:44.769Z,23.26
2023-05-12T06:52:45.885Z,23.27
2023-05-12T06:53:44.898Z,23.27
2023-05-12T06:54:44.917Z,23.27
2023-05-12T06:55:45.016Z,23.28
2023-05-12T06:56:45.131Z,23.28
2023-05-12T06:57:45.035Z,23.28
2023-05-12T06:58:45.055Z,23.28
2023-05-12T06:59:45.186Z,23.28
2023-05-12T07:00:45.170Z,23.28
2023-05-12T07:01:45.284Z,23.29
2023-05-12T07:02:45.348Z,23.29
2023-05-12T07:03:45.428Z,23.29
2023-05-12T07:04:45.487Z,23.29
2023-05-12T07:05:45.483Z,23.29
2023-05-12T07:06:45.497Z,23.30
2023-05-12T07:07:45.559Z,23.30
2023-05-12T07:08:45.613Z,23.30
2023-05-12T07:09:45.720Z,23.30
2023-05-12T07:10:45.739Z,23.29
2023-05-12T07:11:45.812Z,23.30
2023-05-12T07:12:45.919Z,23.30
2023-05-12T07:13:45.901Z,23.29
2023-05-12T07:14:45.932Z,23.29
2023-05-12T07:15:46.019Z,23.30
2023-05-12T07:16:46.035Z,23.30
2023-05-12T07:17:46.146Z,23.30
2023-05-12T07:18:46.238Z,23.31
2023-05-12T07:19:46.176Z,23.30
2023-05-12T07:20:46.258Z,23.30
2023-05-12T07:21:46.270Z,23.30
2023-05-12T07:22:46.293Z,23.31
2023-05-12T07:23:46.314Z,23.30
2023-05-12T07:24:46.361Z,23.31
2023-05-12T07:25:46.420Z,23.32
2023-05-12T11:17:42.292Z,23.48
2023-05-12T11:18:42.281Z,23.55
2023-05-12T11:19:42.176Z,23.58
2023-05-12T11:20:42.132Z,23.63
2023-05-12T11:21:42.140Z,23.67
2023-05-12T11:22:42.137Z,23.70
2023-05-12T11:23:42.097Z,23.73
2023-05-12T11:24:42.092Z,23.75
2023-05-12T11:25:44.153Z,23.77
2023-05-12T11:26:42.105Z,23.80
2023-05-12T11:27:42.065Z,23.81
2023-05-12T11:28:42.115Z,23.82
2023-05-12T11:29:42.084Z,23.84
2023-05-12T11:30:42.114Z,23.86
2023-05-12T11:31:42.162Z,23.88
2023-05-12T11:32:42.168Z,23.89
2023-05-12T11:33:42.190Z,23.91
2023-05-12T11:34:42.186Z,23.92
2023-05-12T11:35:42.166Z,23.94
2023-05-12T11:36:42.220Z,23.95
2023-05-12T11:37:42.158Z,23.96
2023-05-12T11:38:42.151Z,23.97
2023-05-12T11:39:42.176Z,23.99
2023-05-12T11:40:42.176Z,23.99
2023-05-12T11:41:42.211Z,24.00
2023-05-12T11:42:42.240Z,24.02
2023-05-12T11:43:42.283Z,24.02
2023-05-12T11:44:42.316Z,24.03
2023-05-12T11:45:42.416Z,24.04
2023-05-12T11:46:42.401Z,24.04
2023-05-12T11:47:42.432Z,24.05
2023-05-12T11:48:42.454Z,24.05
2023-05-12T11:49:42.504Z,24.05
2023-05-12T11:50:42.543Z,24.06
2023-05-12T11:51:42.560Z,24.06
2023-05-12T11:52:42.587Z,24.06
2023-05-12T11:53:42.643Z,24.07
2023-05-12T11:54:42.653Z,24.08
2023-05-12T11:55:42.678Z,24.09
2023-05-12T11:56:42.709Z,24.09
2023-05-12T11:57:42.715Z,24.09
2023-05-12T11:58:42.741Z,24.10
2023-05-12T11:59:42.762Z,24.11
2023-05-12T12:00:42.818Z,24.12
2023-05-12T12:01:42.847Z,24.11
2023-05-12T12:02:42.910Z,24.11
2023-05-12T12:03:43.001Z,24.12
2023-05-12T12:04:43.271Z,24.12
2023-05-12T12:05:43.025Z,24.12
2023-05-12T12:06:43.093Z,24.12
2023-05-12T12:07:43.119Z,24.12
2023-05-12T12:08:43.155Z,24.12
2023-05-12T12:09:43.182Z,24.13
2023-05-12T12:10:43.224Z,24.12
2023-05-12T12:11:43.288Z,24.12
2023-05-12T12:12:43.331Z,24.12
2023-05-12T12:13:43.331Z,24.11
2023-05-12T12:14:43.774Z,24.12
2023-05-12T12:15:43.414Z,24.12
2023-05-12T12:16:43.424Z,24.12
2023-05-12T12:17:43.468Z,24.12
2023-05-12T12:18:43.495Z,24.11
2023-05-12T12:19:43.475Z,24.11
2023-05-12T12:20:43.479Z,24.11
2023-05-12T12:21:43.557Z,24.12
2023-05-12T12:22:43.546Z,24.12
2023-05-12T12:23:50.825Z,24.11
2023-05-12T12:24:44.594Z,24.10
2023-05-12T12:25:43.583Z,24.12
2023-05-12T12:26:43.567Z,24.12
2023-05-12T12:27:43.558Z,24.12
2023-05-12T12:28:43.550Z,24.13
2023-05-12T12:29:43.534Z,24.14
2023-05-12T12:30:43.538Z,24.14
2023-05-12T12:31:43.612Z,24.15
2023-05-12T12:32:43.547Z,24.14
2023-05-12T12:33:43.551Z,24.14
2023-05-12T12:34:43.559Z,24.16
2023-05-12T12:35:43.584Z,24.16
2023-05-12T12:36:43.593Z,24.15
2023-05-12T12:37:43.622Z,24.14
2023-05-12T12:38:43.665Z,24.14
2023-05-12T12:39:43.700Z,24.14
2023-05-12T12:40:43.685Z,24.14
2023-05-12T12:41:43.714Z,24.13
2023-05-12T12:42:43.749Z,24.14
2023-05-12T12:43:43.778Z,24.13
2023-05-12T12:44:43.850Z,24.14
2023-05-12T12:45:43.804Z,24.13
2023-05-12T12:46:43.924Z,24.12
2023-05-12T12:47:43.877Z,24.12
2023-05-12T12:48:43.868Z,24.12
2023-05-12T12:49:43.945Z,24.11
2023-05-12T12:50:43.957Z,24.11
2023-05-12T12:51:46.668Z,24.09
2023-05-12T12:52:43.934Z,24.08
2023-05-12T12:53:43.959Z,24.08
2023-05-12T12:54:43.957Z,24.07
2023-05-12T12:55:43.908Z,24.06
2023-05-12T12:56:43.907Z,24.07
2023-05-12T12:57:43.898Z,24.07
2023-05-12T12:58:43.888Z,24.06
2023-05-12T12:59:43.917Z,24.07
2023-05-12T13:00:43.898Z,24.06
2023-05-12T13:01:43.998Z,24.06
2023-05-12T13:02:43.957Z,24.06
2023-05-12T13:03:43.841Z,24.07
2023-05-12T13:04:43.830Z,24.06
2023-05-12T13:05:43.832Z,24.06
2023-05-12T13:06:43.831Z,24.06
2023-05-12T13:07:43.808Z,24.06
2023-05-12T13:08:43.837Z,24.06
2023-05-12T13:09:43.844Z,24.07
2023-05-12T13:10:43.806Z,24.07
2023-05-12T13:11:43.782Z,24.07
2023-05-12T13:12:43.775Z,24.08
2023-05-12T13:13:43.774Z,24.08
2023-05-12T13:14:43.796Z,24.08
2023-05-12T13:15:43.748Z,24.09
2023-05-12T13:16:43.785Z,24.09
2023-05-12T13:17:43.779Z,24.09
2023-05-12T13:18:43.846Z,24.09
2023-05-12T13:19:43.785Z,24.09
2023-05-12T13:20:43.714Z,24.10
2023-05-12T13:21:43.737Z,24.10
2023-05-12T13:22:43.726Z,24.11
2023-05-12T13:23:43.708Z,24.11
2023-05-12T13:24:43.733Z,24.11
2023-05-12T13:25:43.702Z,24.11
2023-05-12T13:26:43.681Z,24.10
2023-05-12T13:27:43.668Z,24.11
2023-05-12T13:28:43.651Z,24.11
2023-05-12T13:29:43.697Z,24.11
2023-05-12T13:30:43.665Z,24.11
2023-05-12T13:31:43.632Z,24.11
2023-05-12T13:32:43.644Z,24.10
2023-05-12T13:33:43.634Z,24.09
2023-05-12T13:34:43.612Z,24.10
2023-05-12T13:35:43.608Z,24.10
2023-05-12T13:36:43.618Z,24.10
2023-05-12T13:37:43.628Z,24.10
2023-05-12T13:38:43.593Z,24.08
2023-05-12T13:39:43.574Z,24.09
2023-05-12T13:40:43.579Z,24.07
2023-05-12T13:41:43.620Z,24.07
2023-05-12T13:42:43.555Z,24.07
2023-05-12T13:43:43.545Z,24.07
2023-05-12T13:44:43.548Z,24.07
2023-05-12T13:45:43.539Z,24.07
2023-05-12T13:46:43.622Z,24.07
2023-05-12T13:47:43.541Z,24.06
2023-05-12T13:48:44.386Z,24.05
2023-05-12T13:49:43.518Z,24.06
2023-05-12T13:50:43.531Z,24.05
2023-05-12T13:51:43.500Z,24.04
2023-05-12T13:52:43.490Z,24.04
2023-05-12T13:53:43.488Z,24.04
2023-05-12T13:54:43.472Z,24.05
2023-05-12T13:55:43.459Z,24.04
2023-05-12T13:56:43.455Z,24.04
2023-05-12T13:57:43.597Z,24.04
2023-05-12T13:58:43.479Z,24.03
2023-05-12T13:59:43.453Z,24.04
2023-05-12T14:00:43.477Z,24.05
2023-05-12T14:01:43.540Z,24.05
2023-05-12T14:02:43.554Z,24.06
2023-05-12T14:03:43.569Z,24.06
2023-05-12T14:04:43.598Z,24.05
2023-05-12T14:05:43.646Z,24.05
2023-05-12T14:06:43.648Z,24.04
2023-05-12T14:07:43.676Z,24.03
2023-05-12T14:08:43.730Z,24.03
2023-05-12T14:09:43.753Z,24.03
2023-05-12T14:10:43.790Z,24.02
2023-05-12T14:11:43.819Z,24.02
2023-05-12T14:12:43.846Z,24.02
2023-05-12T14:13:43.869Z,24.02
2023-05-12T14:14:43.910Z,24.02
2023-05-12T14:15:49.336Z,24.02
2023-05-12T14:16:44.995Z,24.01
2023-05-12T14:17:44.028Z,24.02
2023-05-12T14:18:44.095Z,24.01
2023-05-12T14:19:43.905Z,24.01
2023-05-12T14:20:43.896Z,24.02
2023-05-12T14:21:43.906Z,24.02
2023-05-12T14:22:43.889Z,24.01
2023-05-12T14:23:43.885Z,24.02
2023-05-12T14:24:43.868Z,24.01
2023-05-12T14:25:43.879Z,24.02
2023-05-12T14:26:43.867Z,24.01
2023-05-12T14:27:43.846Z,24.00
2023-05-12T14:28:43.894Z,24.01
2023-05-12T14:29:43.881Z,24.01
2023-05-12T14:30:43.928Z,24.01
2023-05-12T14:31:43.906Z,24.02
2023-05-12T14:32:43.910Z,24.02
2023-05-12T14:33:43.918Z,24.01
2023-05-12T14:34:43.949Z,24.01
2023-05-12T14:35:52.832Z,24.01
2023-05-12T14:36:44.954Z,24.00
2023-05-12T14:37:43.927Z,23.99
2023-05-12T14:38:43.925Z,23.99
2023-05-12T14:39:43.952Z,23.99
2023-05-12T14:40:43.916Z,24.01
2023-05-12T14:41:43.901Z,24.00
2023-05-12T14:42:43.896Z,24.00
2023-05-12T14:43:43.897Z,24.00
2023-05-12T14:44:43.879Z,23.99
2023-05-12T14:45:43.895Z,23.98
2023-05-12T14:46:43.892Z,24.00
2023-05-12T14:47:43.945Z,24.00
2023-05-12T14:48:43.870Z,23.99
2023-05-12T14:49:45.590Z,24.00
2023-05-12T14:50:43.853Z,23.99
2023-05-12T14:51:43.848Z,23.99
2023-05-12T14:52:43.850Z,24.00
2023-05-12T14:53:43.833Z,23.99
2023-05-12T14:54:43.852Z,23.99
2023-05-12T14:55:43.854Z,23.99
2023-05-12T14:56:43.868Z,23.99
2023-05-12T14:57:43.869Z,23.99
2023-05-12T14:58:43.896Z,23.99
2023-05-12T14:59:43.935Z,23.99
2023-05-12T15:00:43.954Z,23.99
2023-05-12T15:01:44.103Z,23.98
2023-05-12T15:02:44.054Z,23.98
2023-05-12T15:03:43.996Z,23.98
2023-05-12T15:04:43.981Z,23.98
2023-05-12T15:06:44.029Z,23.98
2023-05-12T15:07:44.034Z,23.98
2023-05-12T15:08:43.992Z,23.97
2023-05-12T15:09:43.980Z,23.97
2023-05-12T15:10:43.987Z,23.97
2023-05-12T15:11:43.969Z,23.97
2023-05-12T15:12:43.962Z,23.96
2023-05-12T15:13:43.957Z,23.96
2023-05-12T15:14:44.101Z,23.95
2023-05-12T15:15:43.956Z,23.95
2023-05-12T15:16:43.983Z,23.95
2023-05-12T15:17:43.964Z,23.95
2023-05-12T15:18:44.023Z,23.96
2023-05-12T15:19:43.919Z,23.96
2023-05-12T15:20:43.907Z,23.95
2023-05-12T15:21:43.907Z,23.95
2023-05-12T15:22:43.899Z,23.94
2023-05-12T15:23:43.920Z,23.95
2023-05-12T15:24:43.882Z,23.95
2023-05-12T15:25:43.892Z,23.94
2023-05-12T15:26:43.871Z,23.93
2023-05-12T15:27:43.868Z,23.92
2023-05-12T15:28:43.935Z,23.93
2023-05-12T15:29:43.915Z,23.92
2023-05-12T15:30:43.896Z,23.92
2023-05-12T15:31:43.986Z,23.93
2023-05-12T15:32:43.962Z,23.92
2023-05-12T15:33:43.908Z,23.92
2023-05-12T15:34:43.894Z,23.93
2023-05-12T15:35:43.803Z,23.92
2023-05-12T15:36:43.855Z,23.91
2023-05-12T15:37:43.795Z,23.91
2023-05-12T15:38:43.801Z,23.91
2023-05-12T15:39:43.770Z,23.91
2023-05-12T15:40:43.940Z,23.92
2023-05-12T15:41:43.826Z,23.92
2023-05-12T15:42:43.751Z,23.91
2023-05-12T15:43:43.734Z,23.90
2023-05-12T15:44:43.740Z,23.91
2023-05-12T15:45:43.753Z,23.91
2023-05-12T15:46:43.778Z,23.90
2023-05-12T15:47:43.745Z,23.90
2023-05-12T15:48:43.709Z,23.91
2023-05-12T15:49:43.710Z,23.92
2023-05-12T15:50:43.685Z,23.92
2023-05-12T15:51:43.688Z,23.91
2023-05-12T15:52:43.672Z,23.91
2023-05-12T15:53:43.677Z,23.91
2023-05-12T15:54:43.658Z,23.90
2023-05-12T15:55:43.662Z,23.89
2023-05-12T15:56:43.648Z,23.89
2023-05-12T15:57:43.653Z,23.88
2023-05-12T15:58:43.624Z,23.87
2023-05-12T15:59:43.624Z,23.87
2023-05-12T16:00:43.633Z,23.88
2023-05-12T16:01:43.659Z,23.88
2023-05-12T16:02:43.702Z,23.89
2023-05-12T16:03:43.697Z,23.89
2023-05-12T16:04:43.569Z,23.87
2023-05-12T16:05:43.565Z,23.87
2023-05-12T16:06:43.563Z,23.86
2023-05-12T16:07:43.565Z,23.85
2023-05-12T16:08:43.556Z,23.86
2023-05-12T16:09:43.549Z,23.85
2023-05-12T16:10:43.536Z,23.85
2023-05-12T16:11:43.523Z,23.85
2023-05-12T16:12:43.510Z,23.84
2023-05-12T16:13:43.515Z,23.83
2023-05-12T16:14:43.497Z,23.83
2023-05-12T16:15:43.548Z,23.83
2023-05-12T16:16:43.549Z,23.83
2023-05-12T16:17:43.625Z,23.82
2023-05-12T16:18:43.545Z,23.82
2023-05-12T16:19:43.465Z,23.82
2023-05-12T16:20:43.487Z,23.82
2023-05-12T16:21:43.453Z,23.81
2023-05-12T16:22:43.446Z,23.81
2023-05-12T16:23:43.432Z,23.81
2023-05-12T16:24:43.444Z,23.81
2023-05-12T16:25:43.422Z,23.80
2023-05-12T16:26:43.441Z,23.80
2023-05-12T16:27:43.399Z,23.80
2023-05-12T16:28:43.397Z,23.80
2023-05-12T16:29:43.389Z,23.79
2023-05-12T16:30:43.389Z,23.79
2023-05-12T16:31:43.384Z,23.79
2023-05-12T16:32:43.394Z,23.79
2023-05-12T16:33:43.357Z,23.79
2023-05-12T16:34:43.367Z,23.78
2023-05-12T16:35:43.344Z,23.77
2023-05-12T16:36:43.338Z,23.77
2023-05-12T16:37:43.337Z,23.77
2023-05-12T16:38:43.329Z,23.77
2023-05-12T16:39:43.345Z,23.77
2023-05-12T16:40:43.324Z,23.77
2023-05-12T16:41:43.309Z,23.76
2023-05-12T16:42:43.318Z,23.76
2023-05-12T16:43:43.299Z,23.76
2023-05-12T16:44:43.294Z,23.76
2023-05-12T16:45:43.386Z,23.75